Windsor Airport
CYQG : now visible

Airfield :











YOU CAN JOIN US ON...

 
LOGIN :

Register | Disclaimer

   EN    FR    IT 

 









Legend :    VFR   Marginal VFR   IFR   Intensive IFR   Very Intensive IFR
Visi :
Ceiling :
>= 8 km
>= 3000ft
5 to 8 km
1000 to 3000 ft
1500m to 5 km
500 to 1000 ft
800 to 1500m
200 to 500 ft
< 800m
< 200 ft
Symbols :   Thunderstorms  Fog  Heavy snow  Heavy precipitations  Wind > 20 kt






- Airport Elevation : 622 ft
- IATA code : YQG


CYQG - Windsor

CURRENT METAR :
  • 242200Z AUTO 05005KT 020V090 9SM BKN045 07/01 A3020 RMK SLP232

EXPIRED METARs :
  • 242100Z AUTO 09004KT 9SM FEW045 07/01 A3019 RMK SLP230
  • 242000Z AUTO 07005KT 030V110 9SM BKN039 08/00 A3019 RMK SLP230

TAF TAF CYQG
Valid from the 24 at 18:00 until the 25 at 18:00 UTC


241738Z 2418/2518 34005KT P6SM BKN030
FM250400 36005KT P6SM BKN020
FM250800 01007KT P6SM FEW010 SCT200
PROB30 2509/2513 2SM BR
FM251500 04010KT P6SM FEW020 SCT200 RMK FCST BASED ON AUTO OBS. NXT FCST BY 250000Z
CZYZ FIR / North America



MET'MAP, your aeronautical weather chart ! - Copyright ORBIFLY December 2007 - Disclaimer

ORBIFLY MET'MAP TEAM :

Programming & Development : Alexandra Zaïnal
Concept & original design : Baudouin d'Aumeries
Assistance for programming : Marc-Olivier Méhu
Technical & hardware support : Manuel Goepfert

Contact : metmap@orbifly.com




SOURCES & CREDITS :

   NOAA       Earth
Advisory